Time;durP1;ratioP1;P1;durP2;ratioP2;P2;SDS_P1;SDS_P2;PMS_P1;PMS_P2;Temp;Humidity;BMP_temperature;BMP_pressure;BME280_temperature;BME280_humidity;BME280_pressure;Samples;Min_cycle;Max_cycle;Signal;HPM_P1;HPM_P2
2022/06/03 00:00:52;;;;;;;;;;;;;;;16.83;42.64;100817.09;5032877;28;7180;-77
2022/06/03 00:03:53;;;;;;;;;;;;;;;16.79;42.41;100813.53;5018255;28;6973;-77
2022/06/03 00:07:13;;;;;;;;;;;;;;;16.76;42.97;100813.47;5017097;28;7275;-77
2022/06/03 00:10:16;;;;;;;;;;;;;;;16.72;43.00;100811.63;4976930;28;8429;-77
2022/06/03 00:12:53;;;;;;;;;;;;;;;16.67;42.99;100820.97;5008155;28;7376;-77
2022/06/03 00:15:56;;;;;;;;;;;;;;;16.62;43.06;100818.22;5019342;28;7273;-77
2022/06/03 00:18:52;;;;;;;;;;;;;;;16.60;43.05;100825.09;5021832;28;7015;-77
2022/06/03 00:22:01;;;;;;;;;;;;;;;16.59;43.40;100812.09;5011367;28;7839;-77
2022/06/03 00:25:09;;;;;;;;;;;;;;;16.57;43.53;100817.25;5032670;28;8683;-77
2022/06/03 00:28:09;;;;;;;;;;;;;;;16.52;43.32;100811.91;5023248;28;7000;-77
2022/06/03 00:30:49;;;;;;;;;;;;;;;16.50;43.34;100813.56;5014800;28;7867;-77
2022/06/03 00:33:53;;;;;;;;;;;;;;;16.47;43.50;100813.47;5036320;28;7184;-77
2022/06/03 00:36:48;;;;;;;;;;;;;;;16.45;44.14;100817.72;5021466;28;6903;-77
2022/06/03 00:39:29;;;;;;;;;;;;;;;16.42;44.10;100814.16;5019733;28;6828;-77
2022/06/03 00:42:23;;;;;;;;;;;;;;;16.40;44.04;100811.53;5023080;28;7030;-77
2022/06/03 00:45:28;;;;;;;;;;;;;;;16.38;44.41;100808.03;5037888;28;7246;-78
2022/06/03 00:48:36;;;;;;;;;;;;;;;16.36;43.98;100814.88;4992771;28;7074;-77
2022/06/03 00:51:29;;;;;;;;;;;;;;;16.31;44.26;100808.66;5038234;28;7347;-77
2022/06/03 00:54:23;;;;;;;;;;;;;;;16.27;44.66;100804.22;5022223;28;6984;-77
2022/06/03 00:57:06;;;;;;;;;;;;;;;16.23;44.43;100809.31;5026445;28;6804;-77
2022/06/03 01:00:24;;;;;;;;;;;;;;;16.22;44.78;100807.56;5011044;28;7656;-77
2022/06/03 01:03:17;;;;;;;;;;;;;;;16.16;44.83;100802.19;5012971;28;8733;-77
2022/06/03 01:06:36;;;;;;;;;;;;;;;16.14;44.69;100797.78;5021039;28;6892;-78
2022/06/03 01:09:55;;;;;;;;;;;;;;;16.11;44.93;100793.41;4976106;28;6816;-79
2022/06/03 01:12:41;;;;;;;;;;;;;;;16.08;45.23;100795.91;5008328;28;7251;-79
2022/06/03 01:15:24;;;;;;;;;;;;;;;16.06;45.20;100797.56;5039195;28;7251;-79
2022/06/03 01:18:25;;;;;;;;;;;;;;;16.03;44.76;100794.84;5040556;28;6815;-79
2022/06/03 01:21:35;;;;;;;;;;;;;;;16.02;45.03;100795.69;5019097;28;7004;-79
2022/06/03 01:24:15;;;;;;;;;;;;;;;15.99;45.34;100782.69;5010563;28;6980;-79
2022/06/03 01:27:21;;;;;;;;;;;;;;;15.98;45.30;100799.03;5021132;28;7184;-79
2022/06/03 01:29:59;;;;;;;;;;;;;;;15.92;45.58;100795.41;5040079;28;6999;-79
2022/06/03 01:33:02;;;;;;;;;;;;;;;15.89;45.46;100786.66;5021963;28;7288;-79
2022/06/03 01:35:56;;;;;;;;;;;;;;;15.84;46.15;100783.91;5022749;28;7276;-79
2022/06/03 01:38:56;;;;;;;;;;;;;;;15.79;45.40;100777.72;5037896;28;6831;-79
2022/06/03 01:42:14;;;;;;;;;;;;;;;15.76;46.03;100775.91;5032906;28;6984;-79
2022/06/03 01:45:16;;;;;;;;;;;;;;;15.75;46.46;100773.28;5041441;28;7287;-79
2022/06/03 01:48:03;;;;;;;;;;;;;;;15.73;45.60;100769.75;5021645;28;8709;-79
2022/06/03 01:51:04;;;;;;;;;;;;;;;15.70;46.53;100770.53;5001889;28;6799;-79
2022/06/03 01:54:09;;;;;;;;;;;;;;;15.66;46.32;100759.22;5023048;28;7225;-79
2022/06/03 01:57:07;;;;;;;;;;;;;;;15.62;45.82;100767.69;5022313;28;7573;-80
2022/06/03 02:00:08;;;;;;;;;;;;;;;15.59;46.82;100762.44;5012383;28;8821;-80
2022/06/03 02:03:39;;;;;;;;;;;;;;;15.58;47.15;100762.38;5039791;28;7428;-80
2022/06/03 02:06:23;;;;;;;;;;;;;;;15.53;46.93;100757.06;4995023;28;7022;-80
2022/06/03 02:09:23;;;;;;;;;;;;;;;15.49;47.09;100760.38;5027629;28;7047;-80
2022/06/03 02:12:00;;;;;;;;;;;;;;;15.46;47.14;100752.53;5017978;28;7090;-80
2022/06/03 02:14:40;;;;;;;;;;;;;;;15.47;46.61;100754.28;5039232;28;7038;-80
2022/06/03 02:17:29;;;;;;;;;;;;;;;15.44;47.07;100755.06;5021718;28;8143;-80
2022/06/03 02:20:20;;;;;;;;;;;;;;;15.41;46.98;100758.41;5036130;28;8641;-78
2022/06/03 02:22:52;;;;;;;;;;;;;;;15.38;47.46;100747.97;5019245;28;7211;-78
2022/06/03 02:26:04;;;;;;;;;;;;;;;15.34;47.19;100751.25;5036319;28;6864;-78
2022/06/03 02:32:12;;;;;;;;;;;;;;;15.32;47.26;100757.22;5023073;28;7271;-78
2022/06/03 02:35:00;;;;;;;;;;;;;;;15.33;47.03;100754.66;5025058;28;7164;-78
2022/06/03 02:37:51;;;;;;;;;;;;;;;15.36;47.49;100747.06;5025087;28;8722;-78
2022/06/03 02:40:44;;;;;;;;;;;;;;;15.40;47.97;100745.41;5023681;28;8556;-78
2022/06/03 02:44:08;;;;;;;;;;;;;;;15.43;47.05;100739.50;5024984;28;6807;-78
2022/06/03 02:47:29;;;;;;;;;;;;;;;15.43;48.29;100735.22;5024911;28;7680;-78
2022/06/03 02:50:43;;;;;;;;;;;;;;;15.45;47.81;100727.50;5027613;28;8116;-78
2022/06/03 02:53:31;;;;;;;;;;;;;;;15.47;47.92;100731.03;5040483;28;6982;-79
2022/06/03 02:56:12;;;;;;;;;;;;;;;15.51;47.75;100738.03;5040954;28;6968;-79
2022/06/03 02:59:08;;;;;;;;;;;;;;;15.55;48.12;100734.75;5024580;28;7233;-78
2022/06/03 03:02:17;;;;;;;;;;;;;;;15.58;48.43;100731.38;5004155;28;6884;-78
2022/06/03 03:05:07;;;;;;;;;;;;;;;15.60;48.35;100733.19;5033787;28;6824;-78
2022/06/03 03:08:21;;;;;;;;;;;;;;;15.60;47.91;100738.34;5026054;28;6887;-78
2022/06/03 03:11:26;;;;;;;;;;;;;;;15.60;48.40;100742.66;5017678;28;6828;-78
2022/06/03 03:14:36;;;;;;;;;;;;;;;15.60;48.31;100738.34;5039956;28;6832;-78
2022/06/03 03:17:46;;;;;;;;;;;;;;;15.62;48.34;100725.50;5019829;28;8412;-78
2022/06/03 03:20:46;;;;;;;;;;;;;;;15.63;48.42;100727.25;5024714;28;7002;-78
2022/06/03 03:23:38;;;;;;;;;;;;;;;15.67;48.03;100722.22;5038845;28;6803;-78
2022/06/03 03:26:39;;;;;;;;;;;;;;;15.72;47.87;100718.91;5016714;28;7254;-78
2022/06/03 03:29:49;;;;;;;;;;;;;;;15.80;47.82;100722.59;5012098;28;7154;-78
2022/06/03 03:33:04;;;;;;;;;;;;;;;15.83;48.02;100721.00;5030374;28;6969;-76
2022/06/03 03:35:39;;;;;;;;;;;;;;;15.87;47.42;100711.66;5023462;28;8079;-76
2022/06/03 03:39:16;;;;;;;;;;;;;;;15.92;47.84;100717.84;5023468;28;6807;-77
2022/06/03 03:42:51;;;;;;;;;;;;;;;15.95;47.86;100730.00;5015318;28;6911;-77
2022/06/03 03:45:53;;;;;;;;;;;;;;;15.97;47.59;100728.31;4991643;28;6840;-76
2022/06/03 03:49:13;;;;;;;;;;;;;;;16.00;47.40;100724.97;4998121;28;7022;-76
2022/06/03 03:52:06;;;;;;;;;;;;;;;16.04;47.77;100722.53;5019495;28;6974;-76
2022/06/03 03:54:57;;;;;;;;;;;;;;;16.05;47.66;100716.53;5000328;28;7088;-76
2022/06/03 03:57:54;;;;;;;;;;;;;;;16.07;47.73;100708.81;5039123;28;7241;-76
2022/06/03 04:01:00;;;;;;;;;;;;;;;16.08;47.65;100706.28;5028466;28;6914;-76
2022/06/03 04:04:00;;;;;;;;;;;;;;;16.09;48.00;100713.22;5022771;28;6796;-77
2022/06/03 04:07:21;;;;;;;;;;;;;;;16.13;47.87;100703.84;5032839;28;7043;-77
2022/06/03 04:10:26;;;;;;;;;;;;;;;16.15;48.01;100701.28;4983107;28;7014;-76
2022/06/03 04:13:29;;;;;;;;;;;;;;;16.18;48.32;100701.41;5035501;28;6934;-77
2022/06/03 04:16:21;;;;;;;;;;;;;;;16.24;48.34;100706.75;4999009;28;6999;-77
2022/06/03 04:19:08;;;;;;;;;;;;;;;16.45;48.90;100709.09;5022985;28;8185;-76
2022/06/03 04:22:15;;;;;;;;;;;;;;;16.84;49.24;100704.97;5019771;28;6836;-76
2022/06/03 04:25:21;;;;;;;;;;;;;;;17.29;49.22;100698.41;5021211;28;6815;-77
2022/06/03 04:28:31;;;;;;;;;;;;;;;17.77;48.71;100696.09;5037401;28;7164;-77
2022/06/03 04:31:57;;;;;;;;;;;;;;;18.28;48.42;100694.63;5027180;28;7018;-77
2022/06/03 04:34:49;;;;;;;;;;;;;;;18.77;47.48;100688.66;5025377;28;6914;-77
2022/06/03 04:38:15;;;;;;;;;;;;;;;19.25;47.02;100694.75;4984430;28;7071;-77
2022/06/03 04:41:27;;;;;;;;;;;;;;;19.75;46.65;100698.13;5020183;28;6989;-77
2022/06/03 04:44:41;;;;;;;;;;;;;;;20.12;45.51;100700.38;5018903;28;7387;-77
2022/06/03 04:47:59;;;;;;;;;;;;;;;20.57;45.52;100695.75;5022322;28;7066;-78
2022/06/03 04:50:27;;;;;;;;;;;;;;;20.97;44.48;100690.09;5022190;28;7059;-77
2022/06/03 04:53:16;;;;;;;;;;;;;;;21.32;44.16;100696.50;5026227;28;7172;-77
2022/06/03 04:56:47;;;;;;;;;;;;;;;21.66;42.99;100683.72;5036997;28;6938;-77
2022/06/03 04:59:49;;;;;;;;;;;;;;;21.99;42.88;100683.94;5024344;28;7014;-77
2022/06/03 05:03:12;;;;;;;;;;;;;;;22.36;42.49;100685.84;5026503;28;6908;-77
2022/06/03 05:06:34;;;;;;;;;;;;;;;22.73;41.80;100684.22;5025172;28;7409;-77
2022/06/03 05:09:21;;;;;;;;;;;;;;;23.01;41.17;100680.81;5035341;28;7641;-75
2022/06/03 05:12:38;;;;;;;;;;;;;;;23.32;40.61;100675.63;5022959;28;7151;-77
2022/06/03 05:15:28;;;;;;;;;;;;;;;23.53;40.43;100674.72;5041247;28;7884;-76
2022/06/03 05:18:40;;;;;;;;;;;;;;;23.68;39.83;100671.22;5033807;28;6891;-76
2022/06/03 05:21:32;;;;;;;;;;;;;;;23.83;39.76;100682.50;5032238;28;7430;-77
2022/06/03 05:24:16;;;;;;;;;;;;;;;23.99;39.26;100673.75;5026945;28;6823;-76
2022/06/03 05:27:24;;;;;;;;;;;;;;;24.15;38.57;100675.47;5027274;28;6852;-76
2022/06/03 05:30:31;;;;;;;;;;;;;;;24.22;38.84;100670.19;5024664;28;6827;-76
2022/06/03 05:33:41;;;;;;;;;;;;;;;24.30;37.78;100666.66;5011273;28;6819;-76
2022/06/03 05:36:49;;;;;;;;;;;;;;;24.38;37.26;100668.34;5028775;28;6819;-76
2022/06/03 05:39:52;;;;;;;;;;;;;;;24.41;37.70;100668.34;5039579;28;6911;-76
2022/06/03 05:42:53;;;;;;;;;;;;;;;24.43;37.02;100665.72;5021652;28;7063;-75
2022/06/03 05:45:55;;;;;;;;;;;;;;;24.48;37.20;100652.59;5024938;28;6827;-76
2022/06/03 05:48:42;;;;;;;;;;;;;;;24.45;37.15;100650.88;5024539;28;6832;-76
2022/06/03 05:51:33;;;;;;;;;;;;;;;24.38;37.00;100643.94;5025854;28;6824;-76
2022/06/03 05:54:32;;;;;;;;;;;;;;;24.23;36.96;100648.34;5039677;28;6911;-76
2022/06/03 05:57:25;;;;;;;;;;;;;;;23.97;36.43;100656.28;5037275;28;6958;-76
2022/06/03 06:00:18;;;;;;;;;;;;;;;23.70;36.56;100659.00;5008692;28;8242;-76
2022/06/03 06:03:07;;;;;;;;;;;;;;;23.44;36.59;100666.91;5026351;28;6811;-76
2022/06/03 06:06:01;;;;;;;;;;;;;;;23.15;36.72;100668.59;5032239;28;6808;-76
2022/06/03 06:09:12;;;;;;;;;;;;;;;22.91;36.77;100671.22;5023656;28;6832;-76
2022/06/03 06:12:04;;;;;;;;;;;;;;;22.68;36.77;100672.03;5034644;28;7004;-76
2022/06/03 06:15:04;;;;;;;;;;;;;;;22.53;37.20;100667.66;5023787;28;8186;-76
2022/06/03 06:18:27;;;;;;;;;;;;;;;22.33;37.12;100658.88;5036640;28;6977;-76
2022/06/03 06:21:23;;;;;;;;;;;;;;;22.20;37.30;100663.16;5035578;28;6977;-76
2022/06/03 06:24:15;;;;;;;;;;;;;;;22.13;37.42;100668.34;5039190;28;6827;-76
2022/06/03 06:27:19;;;;;;;;;;;;;;;22.11;37.78;100677.91;5023470;28;6980;-76
2022/06/03 06:30:07;;;;;;;;;;;;;;;22.09;37.68;100674.41;5024457;28;6816;-76
2022/06/03 06:33:06;;;;;;;;;;;;;;;22.13;38.21;100668.34;5039646;28;7406;-76
2022/06/03 06:35:53;;;;;;;;;;;;;;;22.19;37.83;100677.09;5027213;28;6982;-76
2022/06/03 06:38:47;;;;;;;;;;;;;;;22.24;37.79;100676.22;5039516;28;6998;-76
2022/06/03 06:41:50;;;;;;;;;;;;;;;22.27;38.19;100674.50;5036067;28;6823;-76
2022/06/03 06:44:33;;;;;;;;;;;;;;;22.32;38.03;100664.06;5037946;28;6815;-76
2022/06/03 06:47:25;;;;;;;;;;;;;;;22.37;37.99;100669.31;5021092;28;7050;-76
2022/06/03 06:50:16;;;;;;;;;;;;;;;22.45;38.36;100683.25;5037153;28;6985;-76
2022/06/03 06:53:17;;;;;;;;;;;;;;;22.53;37.64;100685.94;5024012;28;6812;-76
2022/06/03 06:56:03;;;;;;;;;;;;;;;22.65;38.25;100687.72;4996630;28;6828;-76
2022/06/03 06:58:43;;;;;;;;;;;;;;;22.85;38.08;100680.78;5035153;28;6883;-76
2022/06/03 07:01:17;;;;;;;;;;;;;;;23.20;38.49;100683.44;5020674;28;7050;-76
2022/06/03 07:03:52;;;;;;;;;;;;;;;23.61;38.68;100673.81;5023736;28;6985;-76
2022/06/03 07:06:43;;;;;;;;;;;;;;;24.17;38.34;100678.94;5025091;28;7230;-76
2022/06/03 07:09:11;;;;;;;;;;;;;;;24.68;37.30;100670.81;4998825;28;6807;-76
2022/06/03 07:12:00;;;;;;;;;;;;;;;25.22;36.86;100661.72;5023018;28;6792;-76
2022/06/03 07:14:39;;;;;;;;;;;;;;;25.72;36.31;100650.78;5040633;28;6800;-76
2022/06/03 07:20:53;;;;;;;;;;;;;;;26.73;35.05;100650.34;5011608;28;7415;-76
2022/06/03 07:23:54;;;;;;;;;;;;;;;27.16;34.67;100653.22;4995606;28;8750;-76
2022/06/03 07:26:38;;;;;;;;;;;;;;;27.53;33.66;100647.28;5003796;28;6815;-76
2022/06/03 07:29:16;;;;;;;;;;;;;;;27.85;33.41;100643.19;5006337;28;6880;-76
2022/06/03 07:32:08;;;;;;;;;;;;;;;28.22;33.45;100646.84;5024616;28;6891;-76
2022/06/03 07:34:56;;;;;;;;;;;;;;;28.61;32.17;100640.69;5007791;28;7184;-76
2022/06/03 07:37:45;;;;;;;;;;;;;;;28.96;31.81;100633.72;5040453;28;6881;-76
2022/06/03 07:40:25;;;;;;;;;;;;;;;29.29;31.72;100629.41;5026082;28;7084;-77
2022/06/03 07:43:07;;;;;;;;;;;;;;;29.46;31.38;100624.56;5025923;28;7541;-76
2022/06/03 07:45:35;;;;;;;;;;;;;;;29.49;31.08;100626.22;5033414;28;6807;-76
2022/06/03 07:48:26;;;;;;;;;;;;;;;29.50;30.56;100620.91;5008098;28;7348;-76
2022/06/03 07:51:20;;;;;;;;;;;;;;;29.46;30.14;100619.28;5010069;28;7271;-76
2022/06/03 07:53:54;;;;;;;;;;;;;;;29.43;29.66;100614.03;5020465;28;7191;-76
2022/06/03 07:56:25;;;;;;;;;;;;;;;29.45;30.35;100604.31;5014586;28;7252;-76
2022/06/03 07:59:00;;;;;;;;;;;;;;;29.59;29.76;100605.72;5024178;28;6973;-76
2022/06/03 08:01:30;;;;;;;;;;;;;;;29.76;29.81;100595.56;5025530;28;7286;-77
2022/06/03 08:03:56;;;;;;;;;;;;;;;30.00;29.17;100593.06;5027031;28;7100;-77
2022/06/03 08:10:56;;;;;;;;;;;;;;;30.21;29.52;100585.44;5027219;28;7001;-77
2022/06/03 08:12:02;;;;;;;;;;;;;;;30.49;28.13;100584.53;5038748;28;7301;-76
2022/06/03 08:14:28;;;;;;;;;;;;;;;30.65;28.78;100584.94;5010734;28;6807;-77
2022/06/03 08:16:55;;;;;;;;;;;;;;;30.79;28.17;100581.81;5024844;28;7011;-77
2022/06/03 08:19:27;;;;;;;;;;;;;;;30.80;27.92;100575.63;5043718;28;6812;-76
2022/06/03 08:22:05;;;;;;;;;;;;;;;30.86;27.80;100577.22;5024181;28;6815;-76
2022/06/03 08:24:41;;;;;;;;;;;;;;;30.95;26.96;100576.88;5024569;28;7034;-76
2022/06/03 08:27:15;;;;;;;;;;;;;;;31.05;27.41;100585.38;5006513;28;6807;-77
2022/06/03 08:29:51;;;;;;;;;;;;;;;31.18;27.31;100580.50;5009443;28;7823;-77
2022/06/03 08:32:37;;;;;;;;;;;;;;;31.39;26.54;100576.25;5041965;28;6807;-77
2022/06/03 08:35:21;;;;;;;;;;;;;;;31.63;26.75;100578.03;5038112;28;6807;-77
2022/06/03 08:38:19;;;;;;;;;;;;;;;31.84;26.46;100565.78;5010343;28;8623;-77
2022/06/03 08:41:36;;;;;;;;;;;;;;;31.99;26.48;100569.63;5025816;28;7242;-77
2022/06/03 08:44:37;;;;;;;;;;;;;;;32.04;26.30;100566.78;5026279;28;7542;-77
2022/06/03 08:47:24;;;;;;;;;;;;;;;32.16;26.02;100568.09;5027703;28;6998;-77
2022/06/03 08:50:47;;;;;;;;;;;;;;;32.44;25.97;100562.56;5029269;28;6828;-77
2022/06/03 08:53:54;;;;;;;;;;;;;;;32.91;25.62;100571.22;5021983;28;7081;-77
2022/06/03 08:56:24;;;;;;;;;;;;;;;33.23;24.98;100569.00;5012346;28;6820;-77
2022/06/03 08:59:01;;;;;;;;;;;;;;;33.37;24.54;100579.00;4995746;28;7264;-77
2022/06/03 09:01:40;;;;;;;;;;;;;;;33.33;23.88;100583.59;5041695;28;8549;-77
2022/06/03 09:04:20;;;;;;;;;;;;;;;32.87;24.11;100589.06;5025712;28;6804;-77
2022/06/03 09:07:29;;;;;;;;;;;;;;;32.20;24.28;100594.44;5025926;28;6807;-77
2022/06/03 09:10:13;;;;;;;;;;;;;;;31.79;24.03;100595.06;5019192;28;6816;-77
2022/06/03 09:13:01;;;;;;;;;;;;;;;31.92;24.80;100594.63;5023888;28;7223;-77
2022/06/03 09:15:38;;;;;;;;;;;;;;;32.43;24.84;100595.31;5017462;28;7863;-77
2022/06/03 09:18:18;;;;;;;;;;;;;;;32.82;24.43;100594.56;5037758;28;6812;-77
2022/06/03 09:21:14;;;;;;;;;;;;;;;33.05;24.36;100587.47;5025361;28;6831;-77
2022/06/03 09:23:47;;;;;;;;;;;;;;;33.05;24.36;100584.81;5036733;28;6831;-77
2022/06/03 09:26:26;;;;;;;;;;;;;;;33.09;24.27;100589.03;5041704;28;6811;-77
2022/06/03 09:28:57;;;;;;;;;;;;;;;33.30;24.39;100583.69;5039406;28;7009;-77
2022/06/03 09:31:24;;;;;;;;;;;;;;;33.66;24.60;100582.16;5038743;28;7034;-77
2022/06/03 09:33:54;;;;;;;;;;;;;;;34.02;24.20;100576.03;5023181;28;6816;-77
2022/06/03 09:36:23;;;;;;;;;;;;;;;34.09;23.45;100565.13;5025511;28;6859;-77
2022/06/03 09:39:01;;;;;;;;;;;;;;;33.98;23.90;100576.22;5023044;28;7004;-77
2022/06/03 09:41:34;;;;;;;;;;;;;;;34.01;23.92;100584.13;5033136;28;6807;-77
2022/06/03 09:44:03;;;;;;;;;;;;;;;34.21;23.44;100583.13;5034358;28;7068;-77
2022/06/03 09:46:31;;;;;;;;;;;;;;;34.48;23.32;100583.59;5016671;28;6990;-77
2022/06/03 09:49:00;;;;;;;;;;;;;;;34.80;23.17;100568.75;5017869;28;7329;-77
2022/06/03 09:54:29;;;;;;;;;;;;;;;35.59;22.62;100577.97;4986788;28;7412;-77
2022/06/03 09:57:21;;;;;;;;;;;;;;;35.83;22.22;100573.09;4997724;28;7195;-76
2022/06/03 10:00:03;;;;;;;;;;;;;;;36.13;21.82;100571.44;5008500;28;6800;-76
2022/06/03 10:02:31;;;;;;;;;;;;;;;36.37;21.71;100568.31;5037806;28;6846;-77
2022/06/03 10:05:03;;;;;;;;;;;;;;;36.50;21.24;100552.44;5041191;28;7156;-78
2022/06/03 10:07:29;;;;;;;;;;;;;;;36.55;21.31;100542.34;5038739;28;6816;-78
2022/06/03 10:12:50;;;;;;;;;;;;;;;36.38;21.29;100554.88;5011495;28;6997;-77
2022/06/03 10:15:42;;;;;;;;;;;;;;;36.60;20.95;100552.78;5024971;28;6804;-77
2022/06/03 10:18:42;;;;;;;;;;;;;;;36.90;20.90;100549.22;5019563;28;6971;-77
2022/06/03 10:21:07;;;;;;;;;;;;;;;37.03;20.21;100541.31;5021387;28;6832;-77
2022/06/03 10:23:40;;;;;;;;;;;;;;;36.73;20.12;100535.06;5022573;28;6807;-77
2022/06/03 10:26:06;;;;;;;;;;;;;;;36.14;20.70;100536.69;5024076;28;6831;-76
2022/06/03 10:28:39;;;;;;;;;;;;;;;35.84;20.96;100549.94;5025668;28;6863;-76
2022/06/03 10:31:15;;;;;;;;;;;;;;;35.82;20.92;100547.34;5021865;28;7262;-77
2022/06/03 10:33:56;;;;;;;;;;;;;;;35.81;21.22;100529.63;5006298;28;6892;-77
2022/06/03 10:36:36;;;;;;;;;;;;;;;35.85;20.70;100528.53;5041549;28;7182;-77
2022/06/03 10:39:06;;;;;;;;;;;;;;;35.69;20.50;100535.66;4997022;28;7070;-77
2022/06/03 10:41:45;;;;;;;;;;;;;;;35.70;20.57;100532.06;5040022;28;7102;-76
2022/06/03 10:44:21;;;;;;;;;;;;;;;35.95;20.95;100536.84;5042890;28;6803;-76
2022/06/03 10:46:59;;;;;;;;;;;;;;;36.34;20.84;100524.00;5039964;28;6809;-77
2022/06/03 10:49:27;;;;;;;;;;;;;;;36.49;19.98;100519.56;5023796;28;6863;-77
2022/06/03 11:03:30;;;;;;;;;;;;;;;34.28;20.73;100530.50;5036463;28;6965;-77
2022/06/03 11:06:02;;;;;;;;;;;;;;;34.19;20.66;100532.69;5007166;28;6827;-77
2022/06/03 11:08:58;;;;;;;;;;;;;;;34.54;20.57;100523.91;5007929;28;6811;-77
2022/06/03 11:11:47;;;;;;;;;;;;;;;35.14;20.36;100524.41;5038624;28;7660;-77
2022/06/03 11:14:42;;;;;;;;;;;;;;;35.50;20.54;100526.00;5039365;28;6811;-76
2022/06/03 11:17:17;;;;;;;;;;;;;;;35.56;19.99;100517.72;5038187;28;6888;-76
2022/06/03 11:19:48;;;;;;;;;;;;;;;35.59;20.35;100509.53;5033986;28;6823;-76
2022/06/03 11:22:25;;;;;;;;;;;;;;;35.80;20.57;100511.09;5001448;28;6824;-76
2022/06/03 11:25:18;;;;;;;;;;;;;;;35.84;20.43;100510.81;5020400;28;6891;-76
2022/06/03 11:27:57;;;;;;;;;;;;;;;35.64;20.41;100505.75;5037154;28;6839;-77
2022/06/03 11:30:48;;;;;;;;;;;;;;;35.39;20.15;100494.63;5040747;28;6946;-77
2022/06/03 11:33:35;;;;;;;;;;;;;;;35.12;20.33;100497.88;5025767;28;7193;-77
2022/06/03 11:36:06;;;;;;;;;;;;;;;35.23;20.60;100494.59;5022804;28;7058;-77
2022/06/03 11:38:44;;;;;;;;;;;;;;;35.35;20.41;100489.53;5034925;28;7147;-77
2022/06/03 11:41:22;;;;;;;;;;;;;;;35.29;19.85;100486.28;5019378;28;6816;-77
2022/06/03 11:44:08;;;;;;;;;;;;;;;35.10;20.25;100485.56;5032679;28;11682;-77
2022/06/03 11:47:02;;;;;;;;;;;;;;;34.96;20.34;100484.50;5034437;28;7053;-77
2022/06/03 11:49:29;;;;;;;;;;;;;;;34.81;20.46;100483.47;5002938;28;6900;-77
2022/06/03 11:51:55;;;;;;;;;;;;;;;34.59;20.16;100470.47;5035700;28;7606;-77
2022/06/03 11:54:25;;;;;;;;;;;;;;;34.28;20.78;100478.19;5041009;28;6998;-77
2022/06/03 11:56:53;;;;;;;;;;;;;;;34.06;20.47;100479.28;5006888;28;6899;-77
2022/06/03 11:59:44;;;;;;;;;;;;;;;33.91;20.99;100480.84;5039985;28;6894;-77
2022/06/03 12:02:44;;;;;;;;;;;;;;;33.80;21.06;100478.72;5035885;28;7259;-77
2022/06/03 12:05:25;;;;;;;;;;;;;;;33.69;21.28;100477.50;5003926;28;7348;-76
2022/06/03 12:08:11;;;;;;;;;;;;;;;33.70;21.29;100477.44;5021974;28;7380;-76
2022/06/03 12:10:58;;;;;;;;;;;;;;;33.83;21.36;100483.03;5038932;28;7299;-76
2022/06/03 12:13:30;;;;;;;;;;;;;;;33.98;21.67;100472.56;5037134;28;6831;-76
2022/06/03 12:15:56;;;;;;;;;;;;;;;33.97;21.49;100477.03;5023786;28;6819;-76
2022/06/03 12:18:30;;;;;;;;;;;;;;;33.76;21.29;100465.66;5040171;28;7019;-76
2022/06/03 12:20:57;;;;;;;;;;;;;;;33.48;21.16;100466.97;5021592;28;7186;-76
2022/06/03 12:23:22;;;;;;;;;;;;;;;33.23;21.46;100476.06;5016095;28;7900;-76
2022/06/03 12:25:51;;;;;;;;;;;;;;;33.10;21.69;100468.66;5019355;28;6795;-76
2022/06/03 12:28:45;;;;;;;;;;;;;;;33.15;21.79;100464.94;5019854;28;6804;-76
2022/06/03 12:31:22;;;;;;;;;;;;;;;33.28;21.90;100476.72;5034848;28;6803;-76
2022/06/03 12:34:22;;;;;;;;;;;;;;;33.86;21.66;100460.75;5015144;28;7255;-77
2022/06/03 12:36:50;;;;;;;;;;;;;;;34.68;21.52;100459.34;5016349;28;6828;-77
2022/06/03 12:39:31;;;;;;;;;;;;;;;35.55;20.77;100470.69;5005089;28;7169;-76
2022/06/03 12:42:02;;;;;;;;;;;;;;;36.14;20.94;100455.81;5035284;28;7124;-76
2022/06/03 12:44:51;;;;;;;;;;;;;;;36.31;20.34;100457.47;5018894;28;6839;-76
2022/06/03 12:47:33;;;;;;;;;;;;;;;36.32;20.64;100458.34;5027336;28;7282;-76
2022/06/03 12:50:05;;;;;;;;;;;;;;;36.49;20.31;100465.31;5024884;28;7729;-76
2022/06/03 12:52:31;;;;;;;;;;;;;;;36.88;19.81;100455.00;5020865;28;6950;-77
2022/06/03 12:55:04;;;;;;;;;;;;;;;37.23;19.71;100459.94;5026349;28;7160;-77
2022/06/03 12:57:56;;;;;;;;;;;;;;;37.58;19.64;100448.81;5013025;28;7276;-77
2022/06/03 13:00:48;;;;;;;;;;;;;;;37.94;20.05;100465.19;5012022;28;6911;-77
2022/06/03 13:03:17;;;;;;;;;;;;;;;38.15;19.48;100454.03;5039493;28;6843;-77
2022/06/03 13:05:48;;;;;;;;;;;;;;;38.16;19.47;100456.63;5020366;28;6977;-77
2022/06/03 13:08:26;;;;;;;;;;;;;;;38.12;19.51;100455.13;5039208;28;6807;-76
2022/06/03 13:11:22;;;;;;;;;;;;;;;38.11;19.21;100456.09;5028004;28;7928;-77
2022/06/03 13:14:14;;;;;;;;;;;;;;;37.91;19.35;100455.59;5039940;28;6811;-77
2022/06/03 13:16:45;;;;;;;;;;;;;;;37.57;19.46;100454.25;5000464;28;7064;-77
2022/06/03 13:19:13;;;;;;;;;;;;;;;37.21;19.60;100446.72;5043889;28;7105;-77
2022/06/03 13:21:57;;;;;;;;;;;;;;;36.82;19.51;100456.25;5024624;28;6967;-76
2022/06/03 13:24:35;;;;;;;;;;;;;;;36.57;20.43;100452.41;5025237;28;7142;-76
2022/06/03 13:27:24;;;;;;;;;;;;;;;36.39;20.42;100449.03;5037001;28;7225;-76
2022/06/03 13:29:50;;;;;;;;;;;;;;;36.19;19.98;100448.41;5042252;28;6807;-77
2022/06/03 13:33:00;;;;;;;;;;;;;;;36.02;20.61;100451.19;5024618;28;6795;-77
2022/06/03 13:35:57;;;;;;;;;;;;;;;35.77;20.78;100450.81;5024825;28;8026;-77
2022/06/03 13:38:27;;;;;;;;;;;;;;;35.54;20.57;100463.63;5041272;28;7229;-77
2022/06/03 13:44:46;;;;;;;;;;;;;;;35.27;21.48;100461.53;5036000;28;6828;-76
2022/06/03 13:47:19;;;;;;;;;;;;;;;35.26;21.04;100467.81;5020455;28;6998;-77
2022/06/03 13:50:01;;;;;;;;;;;;;;;35.39;21.51;100456.47;5038403;28;7537;-76
2022/06/03 13:52:35;;;;;;;;;;;;;;;35.55;21.51;100459.13;5020627;28;7005;-76
2022/06/03 13:55:26;;;;;;;;;;;;;;;35.62;20.90;100444.56;5042082;28;6968;-76
2022/06/03 13:58:16;;;;;;;;;;;;;;;35.53;21.07;100456.53;5022231;28;6900;-77
2022/06/03 14:01:01;;;;;;;;;;;;;;;35.48;21.03;100455.97;5038068;28;7164;-76
2022/06/03 14:03:43;;;;;;;;;;;;;;;35.56;21.27;100459.09;5019281;28;8483;-76
2022/06/03 14:06:32;;;;;;;;;;;;;;;35.50;21.09;100456.72;5036047;28;6996;-76
2022/06/03 14:09:16;;;;;;;;;;;;;;;35.40;20.98;100455.53;5039437;28;7199;-76
2022/06/03 14:11:47;;;;;;;;;;;;;;;35.37;21.35;100455.72;5038792;28;7321;-76
2022/06/03 14:14:44;;;;;;;;;;;;;;;35.34;21.47;100453.19;5010195;28;7054;-76
2022/06/03 14:17:19;;;;;;;;;;;;;;;35.19;21.47;100455.78;5008508;28;6836;-78
2022/06/03 14:20:05;;;;;;;;;;;;;;;35.07;21.26;100443.16;5011797;28;7236;-78
2022/06/03 14:22:39;;;;;;;;;;;;;;;35.10;21.97;100443.81;5024837;28;7052;-78
2022/06/03 14:25:33;;;;;;;;;;;;;;;35.22;21.82;100444.09;5038558;28;7174;-78
2022/06/03 14:28:15;;;;;;;;;;;;;;;35.22;21.71;100446.78;5021043;28;7166;-77
2022/06/03 14:30:55;;;;;;;;;;;;;;;35.09;21.94;100447.41;5006494;28;7050;-76
2022/06/03 14:33:27;;;;;;;;;;;;;;;34.93;21.35;100447.38;5005353;28;9686;-76
2022/06/03 14:36:01;;;;;;;;;;;;;;;34.81;21.77;100450.69;5033722;28;8592;-77
2022/06/03 14:38:45;;;;;;;;;;;;;;;34.88;22.18;100454.75;4986181;28;6879;-77
2022/06/03 14:41:26;;;;;;;;;;;;;;;35.01;22.05;100445.16;5032377;28;6823;-76
2022/06/03 14:43:55;;;;;;;;;;;;;;;35.11;22.02;100444.69;5034115;28;6816;-76
2022/06/03 14:46:34;;;;;;;;;;;;;;;35.02;22.28;100446.88;5033834;28;6899;-76
2022/06/03 14:49:15;;;;;;;;;;;;;;;34.71;21.65;100443.19;5003341;28;8187;-77
2022/06/03 14:51:55;;;;;;;;;;;;;;;34.39;22.01;100443.06;4981784;28;8129;-77
2022/06/03 14:54:34;;;;;;;;;;;;;;;34.14;22.54;100444.31;5037760;28;6819;-77
2022/06/03 14:57:06;;;;;;;;;;;;;;;33.96;22.47;100447.88;5037805;28;7044;-77
2022/06/03 15:00:20;;;;;;;;;;;;;;;33.80;22.69;100440.63;5031535;28;7061;-77
2022/06/03 15:03:10;;;;;;;;;;;;;;;33.68;22.88;100444.78;5028027;28;7137;-77
2022/06/03 15:05:55;;;;;;;;;;;;;;;33.61;22.69;100443.34;5020140;28;6799;-77
2022/06/03 15:09:13;;;;;;;;;;;;;;;33.45;22.95;100436.06;4997713;28;6819;-77
2022/06/03 15:11:47;;;;;;;;;;;;;;;33.14;23.09;100437.53;5005920;28;6824;-77